createdAt,value
2022-09-21T00:01:08.242Z,100.00
2022-09-21T00:03:13.102Z,100.00
2022-09-21T00:05:21.046Z,100.00
2022-09-21T00:07:25.843Z,100.00
2022-09-21T00:09:30.526Z,100.00
2022-09-21T00:11:38.346Z,100.00
2022-09-21T00:13:47.016Z,100.00
2022-09-21T00:15:52.570Z,100.00
2022-09-21T00:17:58.797Z,100.00
2022-09-21T00:20:05.891Z,100.00
2022-09-21T00:22:13.686Z,100.00
2022-09-21T00:24:18.693Z,100.00
2022-09-21T00:26:25.530Z,100.00
2022-09-21T00:28:30.296Z,100.00
2022-09-21T00:30:35.058Z,100.00
2022-09-21T00:32:40.994Z,100.00
2022-09-21T00:34:45.811Z,100.00
2022-09-21T00:36:50.619Z,100.00
2022-09-21T00:39:01.020Z,100.00
2022-09-21T00:41:06.673Z,100.00
2022-09-21T00:43:15.850Z,100.00
2022-09-21T00:45:24.160Z,100.00
2022-09-21T00:47:33.664Z,100.00
2022-09-21T00:49:39.444Z,100.00
2022-09-21T00:51:44.718Z,100.00
2022-09-21T00:53:51.515Z,100.00
2022-09-21T00:56:02.293Z,100.00
2022-09-21T00:58:11.945Z,100.00
2022-09-21T01:00:17.007Z,100.00
2022-09-21T01:02:21.802Z,100.00
2022-09-21T01:04:28.403Z,100.00
2022-09-21T01:06:36.125Z,100.00
2022-09-21T01:08:41.589Z,100.00
2022-09-21T01:11:10.207Z,100.00
2022-09-21T01:13:25.470Z,100.00
2022-09-21T01:15:38.285Z,100.00
2022-09-21T01:17:49.332Z,100.00
2022-09-21T01:20:20.194Z,100.00
2022-09-21T01:22:42.046Z,100.00
2022-09-21T01:25:03.144Z,100.00
2022-09-21T01:27:37.906Z,100.00
2022-09-21T01:29:49.947Z,100.00
2022-09-21T01:32:01.744Z,100.00
2022-09-21T01:34:10.781Z,100.00
2022-09-21T01:36:19.829Z,100.00
2022-09-21T01:38:29.244Z,100.00
2022-09-21T01:40:36.885Z,100.00
2022-09-21T01:42:44.226Z,100.00
2022-09-21T01:44:52.881Z,100.00
2022-09-21T01:46:59.332Z,100.00
2022-09-21T01:49:10.668Z,100.00
2022-09-21T01:51:18.482Z,100.00
2022-09-21T01:53:34.865Z,100.00
2022-09-21T01:55:46.909Z,100.00
2022-09-21T01:57:59.459Z,100.00
2022-09-21T02:00:08.951Z,100.00
2022-09-21T02:02:20.981Z,100.00
2022-09-21T02:04:26.375Z,100.00
2022-09-21T02:06:32.912Z,100.00
2022-09-21T02:08:39.025Z,100.00
2022-09-21T02:10:48.084Z,100.00
2022-09-21T02:12:56.925Z,100.00
2022-09-21T02:15:03.244Z,100.00
2022-09-21T02:17:25.606Z,100.00
2022-09-21T02:19:37.428Z,100.00
2022-09-21T02:21:52.032Z,100.00
2022-09-21T02:24:06.674Z,100.00
2022-09-21T02:26:16.802Z,100.00
2022-09-21T02:28:33.057Z,100.00
2022-09-21T02:30:40.616Z,100.00
2022-09-21T02:32:55.823Z,100.00
2022-09-21T02:35:08.281Z,100.00
2022-09-21T02:37:20.072Z,100.00
2022-09-21T02:39:33.984Z,100.00
2022-09-21T02:41:45.334Z,100.00
2022-09-21T02:43:55.696Z,100.00
2022-09-21T02:46:04.405Z,100.00
2022-09-21T02:48:15.880Z,100.00
2022-09-21T02:50:25.867Z,100.00
2022-09-21T02:52:34.584Z,100.00
2022-09-21T02:54:41.899Z,100.00
2022-09-21T02:56:51.446Z,100.00
2022-09-21T02:58:59.729Z,100.00
2022-09-21T03:01:07.679Z,100.00
2022-09-21T03:03:24.851Z,100.00
2022-09-21T03:05:31.449Z,100.00
2022-09-21T03:07:36.533Z,100.00
2022-09-21T03:09:41.320Z,100.00
2022-09-21T03:11:46.349Z,100.00
2022-09-21T03:13:51.131Z,100.00
2022-09-21T03:16:02.779Z,100.00
2022-09-21T03:18:10.167Z,100.00
2022-09-21T03:20:17.543Z,100.00
2022-09-21T03:22:22.344Z,100.00
2022-09-21T03:24:39.415Z,100.00
2022-09-21T03:26:44.217Z,100.00
2022-09-21T03:28:48.968Z,100.00
2022-09-21T03:30:55.155Z,100.00
2022-09-21T03:32:59.961Z,100.00
2022-09-21T03:35:04.956Z,100.00
2022-09-21T03:37:13.581Z,100.00
2022-09-21T03:39:18.372Z,100.00
2022-09-21T03:41:23.140Z,100.00
2022-09-21T03:43:28.627Z,100.00
2022-09-21T03:45:33.068Z,100.00
2022-09-21T03:47:38.233Z,100.00
2022-09-21T03:49:43.013Z,100.00
2022-09-21T03:51:48.035Z,100.00
2022-09-21T03:53:55.853Z,100.00
2022-09-21T03:56:00.660Z,100.00
2022-09-21T03:58:05.969Z,100.00
2022-09-21T04:00:13.451Z,100.00
2022-09-21T04:02:18.706Z,100.00
2022-09-21T04:04:23.249Z,100.00
2022-09-21T04:06:27.995Z,100.00
2022-09-21T04:08:33.587Z,100.00
2022-09-21T04:10:43.364Z,100.00
2022-09-21T04:12:49.444Z,100.00
2022-09-21T04:14:54.155Z,100.00
2022-09-21T04:16:58.936Z,100.00
2022-09-21T04:19:03.878Z,100.00
2022-09-21T04:21:09.394Z,100.00
2022-09-21T04:23:14.144Z,100.00
2022-09-21T04:25:19.138Z,100.00
2022-09-21T04:27:26.665Z,100.00
2022-09-21T04:29:31.414Z,100.00
2022-09-21T04:31:36.534Z,100.00
2022-09-21T04:33:41.635Z,100.00
2022-09-21T04:35:46.336Z,100.00
2022-09-21T04:37:51.138Z,100.00
2022-09-21T04:39:55.982Z,100.00
2022-09-21T04:42:00.705Z,100.00
2022-09-21T04:44:08.350Z,100.00
2022-09-21T04:46:14.971Z,100.00
2022-09-21T04:48:19.869Z,100.00
2022-09-21T04:50:24.750Z,100.00
2022-09-21T04:52:41.004Z,100.00
2022-09-21T04:54:46.167Z,100.00
2022-09-21T04:56:51.117Z,100.00
2022-09-21T04:58:55.865Z,100.00
2022-09-21T05:01:04.497Z,100.00
2022-09-21T05:03:09.591Z,100.00
2022-09-21T05:05:14.334Z,100.00
2022-09-21T05:07:19.129Z,100.00
2022-09-21T05:09:36.350Z,100.00
2022-09-21T05:11:41.662Z,100.00
2022-09-21T05:13:46.125Z,100.00
2022-09-21T05:15:50.978Z,100.00
2022-09-21T05:17:58.338Z,100.00
2022-09-21T05:20:03.171Z,100.00
2022-09-21T05:22:08.117Z,100.00
2022-09-21T05:24:13.146Z,100.00
2022-09-21T05:26:17.920Z,100.00
2022-09-21T05:28:23.293Z,100.00
2022-09-21T05:30:29.322Z,100.00
2022-09-21T05:32:47.845Z,100.00
2022-09-21T05:35:03.050Z,100.00
2022-09-21T05:37:15.281Z,100.00
2022-09-21T05:39:20.788Z,100.00
2022-09-21T05:41:26.367Z,100.00
2022-09-21T05:43:31.827Z,100.00
2022-09-21T05:45:37.271Z,100.00
2022-09-21T05:47:48.887Z,100.00
2022-09-21T05:50:02.672Z,100.00
2022-09-21T05:52:16.469Z,100.00
2022-09-21T05:54:29.263Z,100.00
2022-09-21T05:56:51.621Z,100.00
2022-09-21T05:59:05.764Z,100.00
2022-09-21T06:01:23.171Z,100.00
2022-09-21T06:03:32.902Z,100.00
2022-09-21T06:05:40.254Z,100.00
2022-09-21T06:07:45.315Z,100.00
2022-09-21T06:09:50.118Z,100.00
2022-09-21T06:11:54.857Z,100.00
2022-09-21T06:13:59.682Z,100.00
2022-09-21T06:16:05.207Z,100.00
2022-09-21T06:18:15.522Z,100.00
2022-09-21T06:20:23.569Z,100.00
2022-09-21T06:22:30.867Z,100.00
2022-09-21T06:24:35.660Z,100.00
2022-09-21T06:26:40.690Z,100.00
2022-09-21T06:28:45.447Z,100.00
2022-09-21T06:30:54.508Z,100.00
2022-09-21T06:33:02.040Z,100.00
2022-09-21T06:35:07.437Z,100.00
2022-09-21T06:37:12.197Z,100.00
2022-09-21T06:39:19.528Z,100.00
2022-09-21T06:41:24.275Z,100.00
2022-09-21T06:43:28.977Z,100.00
2022-09-21T06:45:34.251Z,100.00
2022-09-21T06:47:38.779Z,100.00
2022-09-21T06:49:43.589Z,100.00
2022-09-21T06:51:50.277Z,100.00
2022-09-21T06:53:58.059Z,100.00
2022-09-21T06:56:10.161Z,100.00
2022-09-21T06:58:14.949Z,100.00
2022-09-21T07:00:19.787Z,100.00
2022-09-21T07:02:24.535Z,100.00
2022-09-21T07:04:29.307Z,100.00
2022-09-21T07:06:34.465Z,100.00
2022-09-21T07:11:05.514Z,100.00
2022-09-21T07:13:12.902Z,100.00
2022-09-21T07:15:19.244Z,100.00
2022-09-21T07:17:24.468Z,100.00
2022-09-21T07:19:28.979Z,100.00
2022-09-21T07:21:33.790Z,100.00
2022-09-21T07:23:38.906Z,100.00
2022-09-21T07:25:43.960Z,100.00
2022-09-21T07:27:48.730Z,100.00
2022-09-21T07:29:56.028Z,100.00
2022-09-21T07:32:00.839Z,100.00
2022-09-21T07:34:05.956Z,100.00
2022-09-21T07:36:13.278Z,100.00
2022-09-21T07:38:18.174Z,100.00
2022-09-21T07:40:25.181Z,100.00
2022-09-21T07:42:30.334Z,100.00
2022-09-21T07:44:35.406Z,100.00
2022-09-21T07:46:47.274Z,100.00
2022-09-21T07:48:56.560Z,100.00
2022-09-21T07:51:06.266Z,100.00
2022-09-21T07:53:11.028Z,100.00
2022-09-21T07:55:15.863Z,100.00
2022-09-21T07:57:33.098Z,100.00
2022-09-21T07:59:37.815Z,100.00
2022-09-21T08:01:45.257Z,100.00
2022-09-21T08:03:51.967Z,100.00
2022-09-21T08:05:56.688Z,100.00
2022-09-21T08:08:01.965Z,100.00
2022-09-21T08:10:07.268Z,100.00
2022-09-21T08:12:12.206Z,100.00
2022-09-21T08:14:23.852Z,100.00
2022-09-21T08:16:31.945Z,100.00
2022-09-21T08:18:44.117Z,100.00
2022-09-21T08:20:56.745Z,100.00
2022-09-21T08:23:02.388Z,100.00
2022-09-21T08:25:07.862Z,100.00
2022-09-21T08:27:12.660Z,100.00
2022-09-21T08:29:17.501Z,100.00
2022-09-21T08:31:24.420Z,100.00
2022-09-21T08:33:29.996Z,100.00
2022-09-21T08:35:37.986Z,100.00
2022-09-21T08:37:42.726Z,100.00
2022-09-21T08:39:47.480Z,100.00
2022-09-21T08:42:06.223Z,100.00
2022-09-21T08:44:16.143Z,100.00
2022-09-21T08:46:24.152Z,100.00
2022-09-21T08:48:36.594Z,100.00
2022-09-21T08:50:49.450Z,100.00
2022-09-21T08:53:00.626Z,100.00
2022-09-21T08:55:13.097Z,100.00
2022-09-21T08:57:21.654Z,100.00
2022-09-21T08:59:26.459Z,100.00
2022-09-21T09:01:42.018Z,100.00
2022-09-21T09:04:04.694Z,100.00
2022-09-21T09:06:26.622Z,100.00
2022-09-21T09:08:58.853Z,100.00
2022-09-21T09:11:17.098Z,100.00
2022-09-21T09:13:50.414Z,100.00
2022-09-21T09:16:05.865Z,100.00
2022-09-21T09:18:17.786Z,100.00
2022-09-21T09:20:26.809Z,100.00
2022-09-21T09:22:40.435Z,100.00
2022-09-21T09:24:49.525Z,100.00
2022-09-21T09:26:58.384Z,100.00
2022-09-21T09:29:09.877Z,100.00
2022-09-21T09:31:21.345Z,100.00
2022-09-21T09:33:30.876Z,100.00
2022-09-21T09:35:41.025Z,100.00
2022-09-21T09:37:50.062Z,100.00
2022-09-21T09:39:59.603Z,100.00
2022-09-21T09:42:24.496Z,100.00
2022-09-21T09:44:54.720Z,100.00
2022-09-21T09:47:07.863Z,100.00
2022-09-21T09:49:35.810Z,100.00
2022-09-21T09:51:42.996Z,100.00
2022-09-21T09:53:50.674Z,100.00
2022-09-21T09:55:57.573Z,100.00
2022-09-21T09:58:02.395Z,100.00
2022-09-21T10:00:12.530Z,100.00
2022-09-21T10:02:23.767Z,100.00
2022-09-21T10:04:28.596Z,100.00
2022-09-21T10:06:34.942Z,100.00
2022-09-21T10:08:46.624Z,100.00
2022-09-21T10:10:54.093Z,100.00
2022-09-21T10:13:06.808Z,100.00
2022-09-21T10:15:14.592Z,100.00
2022-09-21T10:17:21.353Z,100.00
2022-09-21T10:19:29.246Z,100.00
2022-09-21T10:21:38.365Z,100.00
2022-09-21T10:23:48.189Z,100.00
2022-09-21T10:26:04.753Z,100.00
2022-09-21T10:28:09.518Z,100.00
2022-09-21T10:30:35.383Z,100.00
2022-09-21T10:32:41.019Z,100.00
2022-09-21T10:35:18.201Z,100.00
2022-09-21T10:37:29.987Z,100.00
2022-09-21T10:39:36.049Z,100.00
2022-09-21T10:41:43.454Z,100.00
2022-09-21T10:43:50.751Z,100.00
2022-09-21T10:45:57.789Z,100.00
2022-09-21T10:48:11.622Z,100.00
2022-09-21T10:50:27.005Z,100.00
2022-09-21T10:52:37.366Z,100.00
2022-09-21T10:54:44.281Z,100.00
2022-09-21T10:57:01.815Z,100.00
2022-09-21T10:59:15.141Z,100.00
2022-09-21T11:01:25.815Z,100.00
2022-09-21T11:03:53.519Z,100.00
2022-09-21T11:06:02.573Z,100.00
2022-09-21T11:08:14.302Z,100.00
2022-09-21T11:10:28.082Z,100.00
2022-09-21T11:12:48.709Z,100.00
2022-09-21T11:15:03.553Z,100.00
2022-09-21T11:17:15.107Z,100.00
2022-09-21T11:19:28.107Z,100.00
2022-09-21T11:21:43.372Z,100.00
2022-09-21T11:23:58.888Z,100.00
2022-09-21T11:26:11.552Z,100.00
2022-09-21T11:28:24.477Z,100.00
2022-09-21T11:30:35.317Z,100.00
2022-09-21T11:33:05.880Z,100.00
2022-09-21T11:35:34.091Z,100.00
2022-09-21T11:37:52.489Z,100.00
2022-09-21T11:40:15.077Z,98.01
2022-09-21T11:42:34.597Z,89.17
2022-09-21T11:44:53.277Z,82.85
2022-09-21T11:47:09.490Z,81.63
2022-09-21T11:49:35.362Z,83.01
2022-09-21T11:51:59.399Z,83.79
2022-09-21T11:54:26.187Z,84.54
2022-09-21T11:56:46.172Z,86.30
2022-09-21T11:59:01.131Z,86.64
2022-09-21T12:01:19.552Z,84.41
2022-09-21T12:03:40.873Z,85.43
2022-09-21T12:05:53.244Z,85.82
2022-09-21T12:08:25.895Z,86.32
2022-09-21T12:10:42.537Z,87.60
2022-09-21T12:12:57.045Z,86.16
2022-09-21T12:15:09.915Z,87.27
2022-09-21T12:17:24.512Z,84.91
2022-09-21T12:19:39.949Z,87.91
2022-09-21T12:21:48.491Z,91.02
2022-09-21T12:23:57.546Z,91.40
2022-09-21T12:26:06.364Z,90.45
2022-09-21T12:28:17.542Z,87.35
2022-09-21T12:30:24.963Z,85.95
2022-09-21T12:32:50.545Z,85.19
2022-09-21T12:35:05.346Z,86.21
2022-09-21T12:37:16.547Z,86.88
2022-09-21T12:39:27.884Z,88.79
2022-09-21T12:41:39.610Z,89.03
2022-09-21T12:43:49.859Z,89.18
2022-09-21T12:46:00.187Z,89.36
2022-09-21T12:48:14.186Z,88.65
2022-09-21T12:50:23.331Z,84.46
2022-09-21T12:52:31.012Z,85.57
2022-09-21T12:54:45.130Z,83.31
2022-09-21T12:56:56.578Z,81.02
2022-09-21T12:59:25.527Z,84.61
2022-09-21T13:01:36.500Z,85.67
2022-09-21T13:03:56.166Z,88.10
2022-09-21T13:06:26.927Z,87.35
2022-09-21T13:08:36.786Z,88.84
2022-09-21T13:10:49.185Z,87.15
2022-09-21T13:13:04.449Z,86.51
2022-09-21T13:15:25.389Z,87.79
2022-09-21T13:17:34.013Z,88.23
2022-09-21T13:19:41.365Z,88.19
2022-09-21T13:21:46.849Z,88.00
2022-09-21T13:23:58.378Z,86.79
2022-09-21T13:26:06.569Z,84.93
2022-09-21T13:28:24.254Z,85.23
2022-09-21T13:30:35.106Z,83.30
2022-09-21T13:32:54.852Z,84.43
2022-09-21T13:35:37.176Z,82.17
2022-09-21T13:37:42.871Z,84.20
2022-09-21T13:39:48.572Z,84.57
2022-09-21T13:42:02.836Z,83.73
2022-09-21T13:44:20.929Z,81.40
2022-09-21T13:46:56.941Z,81.17
2022-09-21T13:49:05.068Z,81.76
2022-09-21T13:51:14.469Z,81.85
2022-09-21T13:53:24.279Z,81.80
2022-09-21T13:55:33.267Z,81.71
2022-09-21T13:57:44.578Z,82.45
2022-09-21T13:59:59.921Z,80.71
2022-09-21T14:02:06.614Z,79.85
2022-09-21T14:04:25.967Z,77.68
2022-09-21T14:06:37.292Z,78.04
2022-09-21T14:08:52.267Z,79.51
2022-09-21T14:11:01.472Z,77.62
2022-09-21T14:13:09.635Z,77.48
2022-09-21T14:15:40.106Z,76.27
2022-09-21T14:17:45.927Z,74.75
2022-09-21T14:20:30.253Z,72.09
2022-09-21T14:22:44.452Z,70.89
2022-09-21T14:24:51.382Z,71.11
2022-09-21T14:27:07.118Z,67.65
2022-09-21T14:29:18.566Z,67.79
2022-09-21T14:31:29.370Z,65.10
2022-09-21T14:33:42.736Z,62.35
2022-09-21T14:35:49.405Z,62.70
2022-09-21T14:38:00.562Z,63.39
2022-09-21T14:40:09.288Z,63.49
2022-09-21T14:42:19.601Z,64.04
2022-09-21T14:44:29.488Z,63.32
2022-09-21T14:46:53.860Z,62.81
2022-09-21T14:49:09.172Z,62.18
2022-09-21T14:51:23.695Z,63.52
2022-09-21T14:53:41.911Z,64.70
2022-09-21T14:56:10.172Z,64.95
2022-09-21T14:58:29.227Z,65.84
2022-09-21T15:00:42.927Z,66.79
2022-09-21T15:02:47.852Z,72.10
2022-09-21T15:05:04.311Z,75.54
2022-09-21T15:07:38.068Z,77.99
2022-09-21T15:10:22.469Z,79.00
2022-09-21T15:12:39.726Z,77.69
2022-09-21T15:14:47.754Z,79.60
2022-09-21T15:16:53.903Z,79.62
2022-09-21T15:19:16.309Z,79.86
2022-09-21T15:21:29.360Z,78.05
2022-09-21T15:23:38.468Z,79.54
2022-09-21T15:25:58.830Z,79.79
2022-09-21T15:28:05.879Z,79.22
2022-09-21T15:30:23.260Z,77.77
2022-09-21T15:32:35.673Z,78.56
2022-09-21T15:34:40.510Z,78.59
2022-09-21T15:36:49.169Z,78.51
2022-09-21T15:38:56.606Z,76.93
2022-09-21T15:41:08.455Z,77.24
2022-09-21T15:43:21.875Z,77.17
2022-09-21T15:45:29.182Z,78.59
2022-09-21T15:47:35.591Z,79.53
2022-09-21T15:49:40.565Z,78.13
2022-09-21T15:51:46.569Z,75.91
2022-09-21T15:53:55.963Z,74.64
2022-09-21T15:56:03.787Z,75.96
2022-09-21T15:58:22.631Z,76.63
2022-09-21T16:00:31.360Z,77.99
2022-09-21T16:02:40.899Z,79.95
2022-09-21T16:04:52.160Z,79.00
2022-09-21T16:07:05.773Z,79.86
2022-09-21T16:09:39.087Z,81.67
2022-09-21T16:11:46.535Z,84.19
2022-09-21T16:14:12.722Z,84.43
2022-09-21T16:16:17.793Z,83.37
2022-09-21T16:18:35.371Z,83.99
2022-09-21T16:20:47.466Z,83.07
2022-09-21T16:22:55.490Z,82.90
2022-09-21T16:25:03.831Z,83.75
2022-09-21T16:27:19.504Z,83.94
2022-09-21T16:29:26.096Z,85.35
2022-09-21T16:31:38.014Z,84.78
2022-09-21T16:33:45.287Z,84.59
2022-09-21T16:35:50.312Z,84.51
2022-09-21T16:37:58.752Z,84.76
2022-09-21T16:40:03.622Z,85.38
2022-09-21T16:42:12.228Z,85.74
2022-09-21T16:44:20.880Z,85.51
2022-09-21T16:46:26.736Z,83.97
2022-09-21T16:48:31.526Z,83.11
2022-09-21T16:50:36.926Z,83.30
2022-09-21T16:52:41.694Z,83.87
2022-09-21T16:54:48.630Z,84.25
2022-09-21T16:56:54.514Z,84.92
2022-09-21T16:59:03.994Z,86.11
2022-09-21T17:01:13.025Z,86.46
2022-09-21T17:03:17.886Z,88.03
2022-09-21T17:05:22.678Z,88.76
2022-09-21T17:07:27.850Z,89.33
2022-09-21T17:09:35.313Z,89.76
2022-09-21T17:11:40.329Z,90.55
2022-09-21T17:13:45.931Z,90.34
2022-09-21T17:15:53.675Z,91.63
2022-09-21T17:17:59.057Z,91.53
2022-09-21T17:20:05.949Z,91.59
2022-09-21T17:22:17.553Z,92.36
2022-09-21T17:24:46.048Z,93.19
2022-09-21T17:26:47.508Z,94.32
2022-09-21T17:28:53.573Z,94.49
2022-09-21T17:31:02.368Z,95.26
2022-09-21T17:33:07.477Z,95.97
2022-09-21T17:35:19.657Z,97.44
2022-09-21T17:37:25.372Z,100.00
2022-09-21T17:39:30.153Z,100.00
2022-09-21T17:41:45.559Z,100.00
2022-09-21T17:44:00.763Z,100.00
2022-09-21T17:46:14.388Z,100.00
2022-09-21T17:48:22.937Z,100.00
2022-09-21T17:50:30.024Z,100.00
2022-09-21T17:52:47.599Z,100.00
2022-09-21T17:54:52.999Z,100.00
2022-09-21T17:57:04.973Z,100.00
2022-09-21T17:59:26.350Z,100.00
2022-09-21T18:01:38.716Z,100.00
2022-09-21T18:03:46.147Z,100.00
2022-09-21T18:05:52.811Z,100.00
2022-09-21T18:07:58.452Z,100.00
2022-09-21T18:10:03.869Z,100.00
2022-09-21T18:12:39.560Z,100.00
2022-09-21T18:14:54.995Z,100.00
2022-09-21T18:17:16.309Z,100.00
2022-09-21T18:19:35.312Z,100.00
2022-09-21T18:21:48.807Z,100.00
2022-09-21T18:24:16.410Z,100.00
2022-09-21T18:26:23.466Z,100.00
2022-09-21T18:28:40.638Z,100.00
2022-09-21T18:30:53.087Z,100.00
2022-09-21T18:33:12.876Z,100.00
2022-09-21T18:35:40.618Z,100.00
2022-09-21T18:37:59.563Z,100.00
2022-09-21T18:40:15.306Z,100.00
2022-09-21T18:42:34.035Z,100.00
2022-09-21T18:44:49.251Z,100.00
2022-09-21T18:47:09.800Z,100.00
2022-09-21T18:49:23.927Z,100.00
2022-09-21T18:51:36.630Z,100.00
2022-09-21T18:53:48.569Z,100.00
2022-09-21T18:55:53.966Z,100.00
2022-09-21T18:58:00.021Z,100.00
2022-09-21T19:00:05.726Z,100.00
2022-09-21T19:02:15.525Z,100.00
2022-09-21T19:04:23.620Z,100.00
2022-09-21T19:06:40.262Z,100.00
2022-09-21T19:08:54.099Z,100.00
2022-09-21T19:11:06.706Z,100.00
2022-09-21T19:13:31.479Z,100.00
2022-09-21T19:16:00.484Z,100.00
2022-09-21T19:18:18.366Z,100.00
2022-09-21T19:20:44.398Z,100.00
2022-09-21T19:22:56.024Z,100.00
2022-09-21T19:25:12.492Z,100.00
2022-09-21T19:27:25.199Z,100.00
2022-09-21T19:29:56.176Z,100.00
2022-09-21T19:32:01.258Z,100.00
2022-09-21T19:34:16.101Z,100.00
2022-09-21T19:36:24.276Z,100.00
2022-09-21T19:38:29.822Z,100.00
2022-09-21T19:40:38.844Z,100.00
2022-09-21T19:42:56.037Z,100.00
2022-09-21T19:45:10.268Z,100.00
2022-09-21T19:47:25.684Z,100.00
2022-09-21T19:49:39.243Z,100.00
2022-09-21T19:51:49.942Z,100.00
2022-09-21T19:54:11.120Z,100.00
2022-09-21T19:56:30.232Z,100.00
2022-09-21T19:58:48.339Z,100.00
2022-09-21T20:00:56.053Z,100.00
2022-09-21T20:03:07.497Z,100.00
2022-09-21T20:05:18.954Z,100.00
2022-09-21T20:07:32.898Z,100.00
2022-09-21T20:09:47.859Z,100.00
2022-09-21T20:12:01.198Z,100.00
2022-09-21T20:14:19.135Z,100.00
2022-09-21T20:16:40.565Z,100.00
2022-09-21T20:18:56.008Z,100.00
2022-09-21T20:21:01.538Z,100.00
2022-09-21T20:23:13.085Z,100.00
2022-09-21T20:25:23.454Z,100.00
2022-09-21T20:27:35.188Z,100.00
2022-09-21T20:29:42.455Z,100.00
2022-09-21T20:31:53.335Z,100.00
2022-09-21T20:33:58.058Z,100.00
2022-09-21T20:36:03.553Z,100.00
2022-09-21T20:38:10.972Z,100.00
2022-09-21T20:40:16.867Z,100.00
2022-09-21T20:42:24.393Z,100.00
2022-09-21T20:44:29.138Z,100.00
2022-09-21T20:46:34.039Z,100.00
2022-09-21T20:48:40.130Z,100.00
2022-09-21T20:50:46.298Z,100.00
2022-09-21T20:52:51.181Z,100.00
2022-09-21T20:54:58.552Z,100.00
2022-09-21T20:57:03.269Z,100.00
2022-09-21T20:59:08.006Z,100.00
2022-09-21T21:01:12.859Z,100.00
2022-09-21T21:03:17.885Z,100.00
2022-09-21T21:05:22.616Z,100.00
2022-09-21T21:07:30.531Z,100.00
2022-09-21T21:09:35.725Z,100.00
2022-09-21T21:11:43.090Z,100.00
2022-09-21T21:13:48.129Z,100.00
2022-09-21T21:15:55.644Z,100.00
2022-09-21T21:18:00.699Z,100.00
2022-09-21T21:20:05.785Z,100.00
2022-09-21T21:22:10.544Z,100.00
2022-09-21T21:24:27.763Z,100.00
2022-09-21T21:26:57.290Z,100.00
2022-09-21T21:29:00.146Z,100.00
2022-09-21T21:31:04.849Z,100.00
2022-09-21T21:33:10.150Z,100.00
2022-09-21T21:35:14.600Z,100.00
2022-09-21T21:37:21.096Z,100.00
2022-09-21T21:39:25.983Z,100.00
2022-09-21T21:41:31.275Z,100.00
2022-09-21T21:43:36.086Z,100.00
2022-09-21T21:45:43.412Z,100.00
2022-09-21T21:47:48.177Z,100.00
2022-09-21T21:49:52.959Z,100.00
2022-09-21T21:51:57.705Z,100.00
2022-09-21T21:54:02.723Z,100.00
2022-09-21T21:56:09.146Z,100.00
2022-09-21T21:58:13.978Z,100.00
2022-09-21T22:00:18.718Z,100.00
2022-09-21T22:02:26.533Z,100.00
2022-09-21T22:04:31.305Z,100.00
2022-09-21T22:06:38.425Z,100.00
2022-09-21T22:08:43.708Z,100.00
2022-09-21T22:10:51.838Z,100.00
2022-09-21T22:12:57.153Z,100.00
2022-09-21T22:15:02.784Z,100.00
2022-09-21T22:17:07.850Z,100.00
2022-09-21T22:19:15.202Z,100.00
2022-09-21T22:21:22.977Z,100.00
2022-09-21T22:23:27.704Z,100.00
2022-09-21T22:25:32.498Z,100.00
2022-09-21T22:27:37.241Z,100.00
2022-09-21T22:29:41.981Z,100.00
2022-09-21T22:31:49.687Z,100.00
2022-09-21T22:33:55.123Z,100.00
2022-09-21T22:36:07.268Z,100.00
2022-09-21T22:38:13.210Z,100.00
2022-09-21T22:40:18.230Z,100.00
2022-09-21T22:42:23.337Z,100.00
2022-09-21T22:44:28.127Z,100.00
2022-09-21T22:46:34.388Z,100.00
2022-09-21T22:48:39.717Z,100.00
2022-09-21T22:50:46.046Z,100.00
2022-09-21T22:52:53.148Z,100.00
2022-09-21T22:54:57.840Z,100.00
2022-09-21T22:57:02.615Z,100.00
2022-09-21T22:59:08.503Z,100.00
2022-09-21T23:01:15.841Z,100.00
2022-09-21T23:03:20.577Z,100.00
2022-09-21T23:05:26.793Z,100.00
2022-09-21T23:07:31.506Z,100.00
2022-09-21T23:09:38.872Z,100.00
2022-09-21T23:11:47.465Z,100.00
2022-09-21T23:13:52.629Z,100.00
2022-09-21T23:15:57.381Z,100.00
2022-09-21T23:18:02.230Z,100.00
2022-09-21T23:20:07.774Z,100.00
2022-09-21T23:22:12.539Z,100.00
2022-09-21T23:24:17.241Z,100.00
2022-09-21T23:26:26.249Z,100.00
2022-09-21T23:28:31.052Z,100.00
2022-09-21T23:30:36.278Z,100.00
2022-09-21T23:32:40.762Z,100.00
2022-09-21T23:34:45.477Z,100.00
2022-09-21T23:36:50.212Z,100.00
2022-09-21T23:38:55.300Z,100.00
2022-09-21T23:41:08.986Z,100.00
2022-09-21T23:43:16.385Z,100.00
2022-09-21T23:45:21.205Z,100.00
2022-09-21T23:47:26.070Z,100.00
2022-09-21T23:49:30.842Z,100.00
2022-09-21T23:51:36.494Z,100.00
2022-09-21T23:53:42.079Z,100.00
2022-09-21T23:55:46.802Z,100.00
2022-09-21T23:57:51.513Z,100.00
2022-09-21T23:59:58.850Z,100.00
